createdAt,value
2023-02-08T00:00:13.769Z,32.33
2023-02-08T00:02:42.099Z,31.13
2023-02-08T00:05:10.386Z,32.10
2023-02-08T00:07:38.688Z,35.90
2023-02-08T00:10:07.399Z,36.37
2023-02-08T00:12:37.795Z,30.17
2023-02-08T00:15:06.531Z,36.33
2023-02-08T00:17:34.962Z,31.30
2023-02-08T00:20:03.235Z,31.93
2023-02-08T00:22:31.544Z,32.27
2023-02-08T00:24:59.740Z,31.33
2023-02-08T00:27:28.040Z,28.43
2023-02-08T00:29:57.735Z,27.80
2023-02-08T00:32:26.068Z,27.37
2023-02-08T00:34:54.416Z,26.57
2023-02-08T00:37:22.731Z,32.90
2023-02-08T00:39:51.499Z,31.90
2023-02-08T00:42:19.815Z,25.93
2023-02-08T00:44:48.108Z,26.30
2023-02-08T00:47:17.835Z,23.30
2023-02-08T00:49:46.074Z,19.60
2023-02-08T00:52:14.394Z,21.63
2023-02-08T00:54:42.754Z,25.47
2023-02-08T00:57:11.027Z,22.60
2023-02-08T00:59:39.281Z,21.27
2023-02-08T01:02:08.347Z,23.93
2023-02-08T01:04:38.582Z,23.70
2023-02-08T01:07:07.219Z,26.00
2023-02-08T01:09:35.756Z,21.27
2023-02-08T01:12:04.111Z,21.53
2023-02-08T01:14:32.620Z,20.77
2023-02-08T01:17:00.950Z,21.67
2023-02-08T01:19:29.390Z,21.50
2023-02-08T01:21:59.156Z,24.30
2023-02-08T01:24:27.505Z,21.70
2023-02-08T01:26:55.816Z,22.20
2023-02-08T01:29:24.288Z,22.17
2023-02-08T01:31:52.729Z,20.03
2023-02-08T01:34:21.079Z,20.73
2023-02-08T01:36:49.927Z,21.10
2023-02-08T01:39:19.645Z,20.33
2023-02-08T01:41:47.997Z,19.33
2023-02-08T01:44:34.747Z,21.73
2023-02-08T01:47:03.758Z,19.17
2023-02-08T01:49:33.739Z,19.63
2023-02-08T01:52:04.079Z,22.37
2023-02-08T01:54:38.164Z,18.67
2023-02-08T01:57:06.829Z,21.83
2023-02-08T01:59:38.023Z,19.97
2023-02-08T02:02:06.927Z,21.03
2023-02-08T02:04:35.705Z,19.63
2023-02-08T02:07:05.334Z,21.73
2023-02-08T02:09:38.526Z,19.40
2023-02-08T02:12:08.076Z,18.70
2023-02-08T02:14:36.917Z,17.80
2023-02-08T02:17:05.203Z,17.20
2023-02-08T02:19:39.260Z,19.33
2023-02-08T02:22:13.009Z,19.17
2023-02-08T02:24:56.575Z,21.23
2023-02-08T02:27:28.402Z,18.47
2023-02-08T02:30:11.420Z,20.37
2023-02-08T02:32:53.541Z,19.10
2023-02-08T02:35:25.035Z,19.60
2023-02-08T02:37:57.180Z,20.20
2023-02-08T02:40:30.410Z,19.17
2023-02-08T02:43:20.422Z,19.40
2023-02-08T02:45:51.990Z,21.97
2023-02-08T02:48:23.839Z,17.63
2023-02-08T02:50:54.872Z,18.33
2023-02-08T02:53:30.402Z,18.63
2023-02-08T02:56:00.592Z,18.10
2023-02-08T02:58:29.524Z,17.90
2023-02-08T03:00:59.705Z,19.27
2023-02-08T03:03:32.596Z,18.47
2023-02-08T03:06:02.838Z,17.27
2023-02-08T03:08:43.315Z,17.90
2023-02-08T03:11:16.342Z,21.67
2023-02-08T03:14:02.551Z,18.37
2023-02-08T03:16:34.526Z,17.10
2023-02-08T03:19:07.559Z,16.33
2023-02-08T03:21:39.854Z,20.80
2023-02-08T03:24:11.410Z,17.60
2023-02-08T03:26:45.029Z,18.47
2023-02-08T03:29:18.507Z,17.13
2023-02-08T03:31:49.029Z,18.23
2023-02-08T03:34:21.347Z,18.13
2023-02-08T03:36:51.019Z,17.37
2023-02-08T03:39:21.488Z,17.83
2023-02-08T03:41:51.815Z,15.70
2023-02-08T03:44:22.631Z,15.70
2023-02-08T03:46:53.810Z,19.80
2023-02-08T03:49:25.062Z,19.57
2023-02-08T03:51:54.133Z,16.67
2023-02-08T03:54:24.287Z,15.50
2023-02-08T03:56:56.348Z,17.23
2023-02-08T03:59:26.821Z,17.07
2023-02-08T04:01:57.759Z,17.10
2023-02-08T04:04:28.351Z,16.27
2023-02-08T04:06:56.738Z,17.47
2023-02-08T04:09:25.241Z,17.73
2023-02-08T04:11:53.547Z,19.63
2023-02-08T04:14:21.833Z,17.47
2023-02-08T04:16:50.023Z,19.10
2023-02-08T04:19:18.198Z,17.40
2023-02-08T04:21:47.868Z,18.17
2023-02-08T04:24:16.058Z,18.30
2023-02-08T04:26:44.243Z,18.87
2023-02-08T04:29:12.423Z,21.07
2023-02-08T04:31:40.738Z,18.77
2023-02-08T04:34:08.992Z,21.23
2023-02-08T04:36:37.232Z,17.53
2023-02-08T04:39:06.848Z,17.77
2023-02-08T04:41:35.094Z,18.77
2023-02-08T04:44:03.359Z,15.40
2023-02-08T04:46:31.668Z,19.97
2023-02-08T04:48:59.913Z,18.67
2023-02-08T04:51:28.131Z,17.50
2023-02-08T04:53:56.347Z,18.10
2023-02-08T04:56:25.941Z,18.20
2023-02-08T04:58:54.127Z,17.07
2023-02-08T05:01:22.349Z,16.50
2023-02-08T05:03:50.672Z,17.03
2023-02-08T05:06:18.866Z,18.47
2023-02-08T05:08:47.101Z,18.50
2023-02-08T05:11:20.742Z,16.30
2023-02-08T05:13:50.414Z,19.23
2023-02-08T05:16:18.781Z,18.10
2023-02-08T05:18:47.010Z,18.00
2023-02-08T05:21:15.250Z,20.43
2023-02-08T05:23:45.238Z,22.07
2023-02-08T05:26:15.168Z,22.67
2023-02-08T05:28:43.359Z,17.53
2023-02-08T05:31:14.382Z,17.20
2023-02-08T05:33:42.798Z,20.00
2023-02-08T05:36:11.209Z,16.23
2023-02-08T05:38:39.409Z,20.63
2023-02-08T05:41:07.595Z,18.53
2023-02-08T05:43:35.784Z,18.67
2023-02-08T05:46:04.316Z,18.97
2023-02-08T05:48:34.124Z,18.53
2023-02-08T05:51:02.416Z,17.17
2023-02-08T05:53:30.845Z,18.10
2023-02-08T05:55:59.370Z,19.40
2023-02-08T05:58:28.303Z,22.13
2023-02-08T06:00:56.637Z,19.87
2023-02-08T06:03:25.125Z,18.60
2023-02-08T06:05:54.758Z,20.50
2023-02-08T06:08:22.952Z,18.87
2023-02-08T06:10:51.120Z,17.63
2023-02-08T06:13:19.314Z,23.50
2023-02-08T06:15:47.954Z,19.60
2023-02-08T06:18:16.448Z,18.37
2023-02-08T06:20:44.694Z,21.53
2023-02-08T06:23:14.255Z,20.47
2023-02-08T06:25:42.476Z,26.20
2023-02-08T06:28:11.088Z,24.50
2023-02-08T06:30:39.816Z,23.87
2023-02-08T06:33:08.295Z,25.23
2023-02-08T06:35:36.490Z,21.17
2023-02-08T06:38:04.711Z,24.23
2023-02-08T06:40:34.283Z,22.10
2023-02-08T06:43:02.530Z,21.73
2023-02-08T06:45:30.764Z,25.57
2023-02-08T06:47:59.105Z,24.90
2023-02-08T06:50:27.278Z,27.70
2023-02-08T06:52:55.822Z,30.37
2023-02-08T06:55:24.048Z,24.20
2023-02-08T06:57:56.232Z,23.40
2023-02-08T07:00:24.750Z,22.90
2023-02-08T07:02:53.413Z,20.83
2023-02-08T07:05:21.770Z,23.63
2023-02-08T07:07:50.285Z,21.13
2023-02-08T07:10:18.527Z,25.50
2023-02-08T07:12:46.721Z,28.37
2023-02-08T07:15:16.316Z,24.53
2023-02-08T07:17:44.640Z,28.57
2023-02-08T07:20:13.206Z,25.40
2023-02-08T07:22:41.565Z,25.83
2023-02-08T07:25:10.403Z,28.23
2023-02-08T07:27:38.583Z,24.60
2023-02-08T07:30:08.177Z,23.23
2023-02-08T07:32:37.771Z,22.47
2023-02-08T07:35:06.090Z,22.90
2023-02-08T07:37:34.371Z,22.17
2023-02-08T07:40:02.530Z,22.43
2023-02-08T07:42:30.767Z,24.60
2023-02-08T07:44:58.934Z,23.33
2023-02-08T07:47:27.170Z,25.30
2023-02-08T07:49:56.732Z,23.27
2023-02-08T07:52:24.922Z,24.53
2023-02-08T07:54:53.153Z,30.10
2023-02-08T07:57:22.089Z,24.43
2023-02-08T07:59:52.535Z,30.13
2023-02-08T08:02:22.080Z,22.10
2023-02-08T08:04:50.402Z,23.73
2023-02-08T08:07:20.024Z,20.43
2023-02-08T08:09:48.302Z,26.60
2023-02-08T08:12:16.490Z,21.37
2023-02-08T08:14:44.688Z,18.70
2023-02-08T08:17:15.982Z,19.03
2023-02-08T08:19:44.318Z,22.43
2023-02-08T08:22:12.888Z,15.87
2023-02-08T08:24:42.506Z,17.37
2023-02-08T08:27:10.797Z,18.47
2023-02-08T08:29:39.714Z,17.47
2023-02-08T08:32:11.509Z,16.70
2023-02-08T08:34:40.017Z,16.47
2023-02-08T08:37:08.312Z,17.07
2023-02-08T08:39:37.135Z,16.27
2023-02-08T08:42:06.942Z,16.17
2023-02-08T08:44:35.357Z,16.50
2023-02-08T08:47:04.090Z,15.83
2023-02-08T08:49:32.646Z,17.00
2023-02-08T08:52:00.995Z,16.83
2023-02-08T08:54:29.398Z,17.67
2023-02-08T08:57:14.743Z,13.97
2023-02-08T08:59:44.380Z,14.80
2023-02-08T09:02:14.139Z,13.73
2023-02-08T09:04:42.448Z,13.80
2023-02-08T09:07:11.095Z,14.27
2023-02-08T09:09:40.853Z,13.70
2023-02-08T09:12:09.576Z,16.07
2023-02-08T09:14:37.942Z,14.80
2023-02-08T09:17:08.210Z,15.00
2023-02-08T09:19:36.420Z,13.43
2023-02-08T09:22:05.048Z,13.60
2023-02-08T09:24:33.309Z,12.43
2023-02-08T09:27:01.533Z,14.93
2023-02-08T09:29:30.245Z,12.80
2023-02-08T09:31:58.523Z,13.40
2023-02-08T09:34:28.193Z,14.90
2023-02-08T09:36:56.430Z,13.67
2023-02-08T09:39:25.975Z,13.23
2023-02-08T09:42:01.011Z,13.70
2023-02-08T09:44:32.077Z,12.57
2023-02-08T09:47:01.778Z,14.53
2023-02-08T09:49:33.345Z,12.40
2023-02-08T09:52:03.594Z,14.47
2023-02-08T09:54:33.821Z,12.00
2023-02-08T09:57:03.142Z,12.00
2023-02-08T09:59:32.713Z,12.33
2023-02-08T10:02:02.911Z,11.97
2023-02-08T10:04:39.380Z,12.93
2023-02-08T10:07:07.676Z,12.90
2023-02-08T10:09:35.890Z,24.07
2023-02-08T10:12:08.636Z,12.00
2023-02-08T10:14:55.589Z,10.60
2023-02-08T10:17:32.580Z,11.93
2023-02-08T10:20:05.895Z,12.03
2023-02-08T10:22:39.886Z,13.37
2023-02-08T10:25:21.987Z,10.43
2023-02-08T10:27:56.624Z,13.40
2023-02-08T10:30:30.780Z,11.40
2023-02-08T10:33:01.732Z,8.93
2023-02-08T10:35:37.172Z,10.20
2023-02-08T10:38:19.720Z,9.90
2023-02-08T10:40:49.139Z,11.30
2023-02-08T10:43:21.347Z,11.07
2023-02-08T10:45:53.055Z,9.53
2023-02-08T10:48:29.796Z,9.63
2023-02-08T10:50:59.559Z,9.63
2023-02-08T10:53:27.929Z,8.30
2023-02-08T10:55:56.476Z,8.83
2023-02-08T10:58:27.132Z,8.43
2023-02-08T11:00:57.623Z,8.77
2023-02-08T11:03:27.611Z,8.90
2023-02-08T11:05:56.210Z,9.67
2023-02-08T11:08:27.792Z,11.20
2023-02-08T11:11:00.138Z,8.47
2023-02-08T11:13:35.492Z,8.50
2023-02-08T11:16:06.561Z,8.87
2023-02-08T11:18:37.271Z,9.60
2023-02-08T11:21:08.309Z,8.10
2023-02-08T11:23:39.843Z,8.03
2023-02-08T11:26:25.790Z,10.73
2023-02-08T11:29:01.373Z,8.40
2023-02-08T11:31:29.826Z,6.97
2023-02-08T11:34:02.455Z,7.63
2023-02-08T11:36:32.601Z,7.30
2023-02-08T11:39:04.460Z,8.93
2023-02-08T11:41:32.925Z,5.80
2023-02-08T11:44:03.598Z,6.70
2023-02-08T11:46:33.984Z,5.97
2023-02-08T11:49:03.589Z,6.90
2023-02-08T11:51:32.819Z,12.10
2023-02-08T11:54:01.542Z,6.33
2023-02-08T11:56:31.804Z,15.40
2023-02-08T11:59:02.194Z,9.10
2023-02-08T12:01:31.253Z,7.20
2023-02-08T12:04:01.315Z,8.27
2023-02-08T12:06:44.434Z,10.43
2023-02-08T12:09:18.522Z,9.73
2023-02-08T12:11:49.416Z,7.93
2023-02-08T12:14:28.122Z,7.47
2023-02-08T12:17:05.968Z,8.10
2023-02-08T12:19:46.306Z,7.03
2023-02-08T12:22:17.780Z,8.33
2023-02-08T12:24:49.152Z,7.23
2023-02-08T12:27:27.519Z,8.87
2023-02-08T12:29:58.484Z,9.87
2023-02-08T12:32:34.170Z,10.23
2023-02-08T12:35:06.113Z,10.23
2023-02-08T12:37:57.568Z,8.97
2023-02-08T12:40:52.547Z,10.60
2023-02-08T12:43:28.333Z,11.07
2023-02-08T12:46:01.524Z,12.97
2023-02-08T12:48:40.828Z,9.33
2023-02-08T12:51:13.530Z,13.67
2023-02-08T12:53:44.229Z,15.67
2023-02-08T12:56:16.653Z,12.30
2023-02-08T12:58:47.589Z,10.03
2023-02-08T13:01:17.723Z,8.57
2023-02-08T13:03:49.289Z,9.57
2023-02-08T13:06:20.204Z,22.93
2023-02-08T13:08:50.345Z,10.53
2023-02-08T13:11:21.160Z,9.67
2023-02-08T13:13:54.764Z,15.10
2023-02-08T13:16:24.980Z,12.37
2023-02-08T13:18:56.061Z,10.90
2023-02-08T13:21:26.175Z,9.10
2023-02-08T13:23:54.825Z,8.47
2023-02-08T13:26:26.537Z,7.17
2023-02-08T13:28:58.387Z,7.33
2023-02-08T13:31:31.144Z,10.53
2023-02-08T13:34:02.256Z,10.60
2023-02-08T13:36:32.216Z,6.73
2023-02-08T13:39:01.893Z,5.13
2023-02-08T13:41:31.590Z,32.30
2023-02-08T13:44:03.001Z,7.10
2023-02-08T13:46:37.235Z,6.17
2023-02-08T13:49:05.576Z,8.40
2023-02-08T13:51:52.889Z,5.23
2023-02-08T13:54:21.234Z,6.70
2023-02-08T13:56:50.279Z,5.00
2023-02-08T13:59:36.330Z,5.00
2023-02-08T14:02:27.055Z,8.23
2023-02-08T14:04:56.408Z,8.80
2023-02-08T14:07:32.856Z,9.90
2023-02-08T14:10:06.334Z,6.70
2023-02-08T14:12:38.472Z,7.57
2023-02-08T14:15:21.589Z,4.57
2023-02-08T14:17:54.569Z,13.50
2023-02-08T14:20:27.102Z,11.77
2023-02-08T14:22:56.231Z,6.33
2023-02-08T14:25:26.484Z,8.23
2023-02-08T14:27:55.804Z,8.00
2023-02-08T14:30:26.822Z,7.03
2023-02-08T14:33:12.238Z,4.23
2023-02-08T14:35:43.298Z,8.87
2023-02-08T14:38:36.193Z,5.10
2023-02-08T14:41:05.402Z,6.53
2023-02-08T14:43:35.219Z,5.13
2023-02-08T14:46:22.348Z,5.00
2023-02-08T14:48:52.764Z,4.40
2023-02-08T14:51:24.099Z,5.60
2023-02-08T14:53:54.521Z,5.37
2023-02-08T14:56:29.403Z,5.20
2023-02-08T14:58:59.237Z,4.43
2023-02-08T15:01:34.479Z,6.23
2023-02-08T15:04:09.083Z,5.77
2023-02-08T15:07:07.697Z,3.80
2023-02-08T15:09:39.426Z,6.53
2023-02-08T15:12:10.376Z,6.73
2023-02-08T15:14:41.689Z,5.73
2023-02-08T15:17:21.654Z,6.13
2023-02-08T15:19:56.091Z,5.50
2023-02-08T15:22:47.558Z,6.23
2023-02-08T15:25:23.171Z,8.90
2023-02-08T15:27:52.579Z,6.60
2023-02-08T15:30:28.370Z,5.33
2023-02-08T15:32:57.281Z,4.97
2023-02-08T15:35:27.565Z,6.70
2023-02-08T15:37:56.535Z,6.27
2023-02-08T15:40:28.727Z,5.43
2023-02-08T15:42:57.245Z,5.50
2023-02-08T15:45:26.368Z,10.23
2023-02-08T15:47:55.145Z,14.90
2023-02-08T15:50:23.942Z,7.60
2023-02-08T15:52:59.262Z,9.00
2023-02-08T15:55:29.621Z,6.97
2023-02-08T15:57:59.639Z,7.33
2023-02-08T16:00:30.839Z,8.67
2023-02-08T16:03:06.681Z,11.37
2023-02-08T16:05:35.553Z,12.13
2023-02-08T16:08:07.094Z,8.67
2023-02-08T16:10:37.148Z,9.83
2023-02-08T16:13:07.067Z,9.97
2023-02-08T16:15:37.966Z,8.73
2023-02-08T16:18:06.361Z,10.90
2023-02-08T16:20:35.450Z,14.50
2023-02-08T16:23:09.368Z,24.40
2023-02-08T16:25:39.476Z,11.77
2023-02-08T16:28:07.805Z,10.30
2023-02-08T16:30:36.580Z,14.57
2023-02-08T16:33:08.809Z,16.40
2023-02-08T16:35:39.495Z,9.90
2023-02-08T16:38:11.834Z,13.63
2023-02-08T16:40:48.881Z,21.40
2023-02-08T16:43:18.140Z,22.53
2023-02-08T16:45:46.516Z,15.10
2023-02-08T16:48:31.358Z,15.93
2023-02-08T16:50:59.894Z,11.13
2023-02-08T16:53:41.267Z,22.80
2023-02-08T16:56:10.831Z,11.30
2023-02-08T16:58:39.315Z,15.03
2023-02-08T17:01:07.981Z,17.30
2023-02-08T17:03:38.123Z,12.97
2023-02-08T17:06:06.616Z,22.03
2023-02-08T17:08:37.540Z,17.97
2023-02-08T17:11:05.847Z,21.20
2023-02-08T17:13:36.571Z,18.63
2023-02-08T17:16:05.028Z,17.33
2023-02-08T17:18:34.879Z,20.20
2023-02-08T17:21:03.532Z,30.27
2023-02-08T17:23:31.838Z,30.13
2023-02-08T17:26:01.634Z,40.83
2023-02-08T17:28:31.555Z,19.40
2023-02-08T17:31:03.165Z,16.23
2023-02-08T17:33:36.367Z,12.50
2023-02-08T17:36:04.655Z,10.83
2023-02-08T17:38:33.188Z,16.00
2023-02-08T17:41:05.728Z,16.87
2023-02-08T17:43:37.284Z,19.20
2023-02-08T17:46:09.962Z,15.17
2023-02-08T17:48:38.335Z,26.83
2023-02-08T17:51:09.765Z,24.70
2023-02-08T17:53:42.993Z,19.60
2023-02-08T17:56:13.916Z,18.10
2023-02-08T17:58:42.597Z,14.60
2023-02-08T18:01:11.208Z,13.30
2023-02-08T18:03:39.433Z,18.97
2023-02-08T18:06:10.949Z,15.70
2023-02-08T18:08:39.910Z,15.27
2023-02-08T18:11:09.836Z,23.60
2023-02-08T18:13:39.731Z,19.50
2023-02-08T18:16:08.798Z,21.17
2023-02-08T18:18:37.089Z,20.73
2023-02-08T18:21:15.038Z,27.73
2023-02-08T18:23:43.664Z,29.33
2023-02-08T18:26:13.450Z,25.63
2023-02-08T18:28:43.330Z,22.97
2023-02-08T18:31:14.426Z,23.07
2023-02-08T18:33:43.426Z,20.80
2023-02-08T18:36:12.392Z,22.83
2023-02-08T18:38:41.071Z,31.50
2023-02-08T18:41:10.329Z,16.70
2023-02-08T18:43:38.953Z,16.03
2023-02-08T18:46:10.392Z,18.93
2023-02-08T18:48:38.993Z,19.10
2023-02-08T18:51:08.356Z,25.00
2023-02-08T18:53:37.990Z,21.57
2023-02-08T18:56:08.000Z,27.83
2023-02-08T18:58:36.607Z,26.23
2023-02-08T19:01:13.388Z,19.60
2023-02-08T19:03:42.132Z,20.70
2023-02-08T19:06:11.525Z,19.10
2023-02-08T19:08:41.186Z,25.00
2023-02-08T19:11:16.283Z,28.47
2023-02-08T19:13:44.555Z,21.37
2023-02-08T19:16:15.854Z,28.57
2023-02-08T19:18:44.159Z,26.07
2023-02-08T19:21:13.251Z,26.03
2023-02-08T19:23:41.651Z,24.77
2023-02-08T19:26:10.867Z,35.23
2023-02-08T19:28:40.296Z,22.03
2023-02-08T19:31:10.024Z,27.57
2023-02-08T19:33:39.876Z,23.43
2023-02-08T19:36:09.075Z,27.33
2023-02-08T19:38:37.452Z,26.07
2023-02-08T19:41:05.975Z,27.13
2023-02-08T19:43:34.354Z,26.60
2023-02-08T19:46:02.626Z,25.47
2023-02-08T19:48:30.907Z,27.60
2023-02-08T19:51:01.131Z,26.90
2023-02-08T19:53:30.022Z,33.07
2023-02-08T19:55:58.930Z,27.27
2023-02-08T19:58:27.760Z,29.60
2023-02-08T20:00:56.071Z,28.67
2023-02-08T20:03:25.049Z,30.80
2023-02-08T20:05:54.953Z,32.40
2023-02-08T20:08:27.361Z,30.30
2023-02-08T20:10:56.298Z,31.53
2023-02-08T20:13:24.887Z,30.03
2023-02-08T20:15:53.161Z,28.63
2023-02-08T20:18:22.130Z,26.10
2023-02-08T20:21:00.202Z,29.30
2023-02-08T20:23:30.145Z,31.40
2023-02-08T20:26:09.517Z,26.90
2023-02-08T20:28:38.397Z,24.07
2023-02-08T20:31:10.136Z,24.43
2023-02-08T20:33:38.557Z,25.70
2023-02-08T20:36:09.443Z,27.60
2023-02-08T20:38:39.518Z,25.17
2023-02-08T20:41:09.376Z,24.37
2023-02-08T20:43:38.261Z,27.67
2023-02-08T20:46:07.635Z,24.10
2023-02-08T20:48:36.054Z,25.27
2023-02-08T20:51:09.376Z,26.53
2023-02-08T20:53:40.074Z,24.23
2023-02-08T20:56:08.632Z,20.33
2023-02-08T20:58:37.190Z,20.70
2023-02-08T21:01:08.952Z,25.37
2023-02-08T21:03:37.667Z,21.80
2023-02-08T21:06:12.905Z,23.13
2023-02-08T21:08:42.645Z,24.40
2023-02-08T21:11:10.959Z,20.87
2023-02-08T21:13:39.929Z,22.30
2023-02-08T21:16:08.704Z,22.33
2023-02-08T21:18:37.833Z,22.63
2023-02-08T21:21:06.567Z,20.13
2023-02-08T21:23:35.427Z,16.87
2023-02-08T21:26:06.744Z,13.87
2023-02-08T21:28:35.349Z,19.53
2023-02-08T21:31:05.933Z,17.00
2023-02-08T21:33:34.551Z,17.80
2023-02-08T21:36:03.954Z,17.53
2023-02-08T21:38:32.157Z,17.17
2023-02-08T21:41:00.377Z,36.07
2023-02-08T21:43:30.005Z,28.70
2023-02-08T21:45:58.303Z,25.83
2023-02-08T21:48:26.489Z,22.33
2023-02-08T21:51:13.232Z,22.53
2023-02-08T21:53:59.366Z,16.47
2023-02-08T21:56:30.030Z,17.77
2023-02-08T21:58:59.627Z,22.57
2023-02-08T22:01:27.875Z,21.23
2023-02-08T22:03:56.126Z,39.10
2023-02-08T22:06:24.438Z,35.53
2023-02-08T22:08:52.728Z,26.43
2023-02-08T22:11:20.986Z,20.90
2023-02-08T22:13:49.264Z,23.73
2023-02-08T22:16:18.910Z,21.73
2023-02-08T22:18:47.545Z,19.47
2023-02-08T22:21:15.890Z,22.63
2023-02-08T22:23:44.413Z,20.47
2023-02-08T22:26:12.729Z,20.63
2023-02-08T22:28:40.967Z,22.77
2023-02-08T22:31:09.343Z,19.23
2023-02-08T22:33:38.952Z,18.47
2023-02-08T22:36:07.987Z,18.13
2023-02-08T22:38:36.292Z,14.90
2023-02-08T22:41:10.320Z,18.17
2023-02-08T22:43:38.618Z,14.63
2023-02-08T22:46:07.470Z,19.20
2023-02-08T22:48:36.569Z,17.50
2023-02-08T22:51:08.546Z,17.77
2023-02-08T22:53:37.078Z,18.60
2023-02-08T22:56:05.522Z,16.37
2023-02-08T22:58:33.923Z,16.43
2023-02-08T23:01:02.157Z,16.10
2023-02-08T23:03:30.438Z,18.50
2023-02-08T23:05:58.853Z,17.93
2023-02-08T23:08:28.504Z,15.63
2023-02-08T23:10:59.909Z,17.80
2023-02-08T23:13:30.194Z,17.30
2023-02-08T23:15:58.773Z,17.97
2023-02-08T23:18:27.819Z,19.93
2023-02-08T23:20:56.255Z,16.37
2023-02-08T23:23:25.340Z,15.20
2023-02-08T23:25:55.005Z,24.77
2023-02-08T23:28:23.298Z,16.53
2023-02-08T23:30:51.582Z,15.03
2023-02-08T23:33:19.984Z,14.57
2023-02-08T23:35:48.356Z,15.20
2023-02-08T23:38:16.626Z,17.33
2023-02-08T23:40:45.146Z,17.10
2023-02-08T23:43:14.884Z,12.13
2023-02-08T23:45:43.132Z,16.80
2023-02-08T23:48:11.565Z,11.07
2023-02-08T23:50:40.806Z,9.17
2023-02-08T23:53:09.084Z,9.93
2023-02-08T23:55:38.155Z,10.30
2023-02-08T23:58:06.376Z,9.30
